sensor_id;sensor_type;location;lat;lon;timestamp;temperature;humidity
7494;DHT22;3788;49.902;8.590;2023-05-07T00:02:15;16.90;94.80
7494;DHT22;3788;49.902;8.590;2023-05-07T00:04:43;16.90;94.90
7494;DHT22;3788;49.902;8.590;2023-05-07T00:07:12;16.90;95.00
7494;DHT22;3788;49.902;8.590;2023-05-07T00:09:38;16.90;95.00
7494;DHT22;3788;49.902;8.590;2023-05-07T00:12:05;16.90;95.20
7494;DHT22;3788;49.902;8.590;2023-05-07T00:14:32;16.90;95.30
7494;DHT22;3788;49.902;8.590;2023-05-07T00:16:59;16.90;95.40
7494;DHT22;3788;49.902;8.590;2023-05-07T00:19:25;16.90;95.50
7494;DHT22;3788;49.902;8.590;2023-05-07T00:21:52;16.80;95.60
7494;DHT22;3788;49.902;8.590;2023-05-07T00:24:21;16.80;95.70
7494;DHT22;3788;49.902;8.590;2023-05-07T00:26:48;16.80;95.70
7494;DHT22;3788;49.902;8.590;2023-05-07T00:29:15;16.80;95.80
7494;DHT22;3788;49.902;8.590;2023-05-07T00:31:42;16.80;96.00
7494;DHT22;3788;49.902;8.590;2023-05-07T00:34:08;16.80;96.20
7494;DHT22;3788;49.902;8.590;2023-05-07T00:36:35;16.70;96.30
7494;DHT22;3788;49.902;8.590;2023-05-07T00:39:02;16.70;96.40
7494;DHT22;3788;49.902;8.590;2023-05-07T00:41:30;16.70;96.60
7494;DHT22;3788;49.902;8.590;2023-05-07T00:43:57;16.70;96.70
7494;DHT22;3788;49.902;8.590;2023-05-07T00:46:24;16.70;96.80
7494;DHT22;3788;49.902;8.590;2023-05-07T00:48:51;16.70;97.00
7494;DHT22;3788;49.902;8.590;2023-05-07T00:51:18;16.60;97.10
7494;DHT22;3788;49.902;8.590;2023-05-07T00:53:45;16.60;97.30
7494;DHT22;3788;49.902;8.590;2023-05-07T00:56:13;16.60;97.40
7494;DHT22;3788;49.902;8.590;2023-05-07T00:58:41;16.50;97.60
7494;DHT22;3788;49.902;8.590;2023-05-07T01:01:08;16.50;97.70
7494;DHT22;3788;49.902;8.590;2023-05-07T01:03:34;16.50;97.80
7494;DHT22;3788;49.902;8.590;2023-05-07T01:06:02;16.50;98.00
7494;DHT22;3788;49.902;8.590;2023-05-07T01:08:30;16.50;98.10
7494;DHT22;3788;49.902;8.590;2023-05-07T01:10:57;16.40;98.20
7494;DHT22;3788;49.902;8.590;2023-05-07T01:13:24;16.40;98.30
7494;DHT22;3788;49.902;8.590;2023-05-07T01:15:53;16.40;98.50
7494;DHT22;3788;49.902;8.590;2023-05-07T01:18:20;16.30;98.60
7494;DHT22;3788;49.902;8.590;2023-05-07T01:20:47;16.30;98.80
7494;DHT22;3788;49.902;8.590;2023-05-07T01:23:15;16.30;99.00
7494;DHT22;3788;49.902;8.590;2023-05-07T01:25:43;16.20;99.10
7494;DHT22;3788;49.902;8.590;2023-05-07T01:28:09;16.20;99.20
7494;DHT22;3788;49.902;8.590;2023-05-07T01:30:36;16.20;99.30
7494;DHT22;3788;49.902;8.590;2023-05-07T01:33:07;16.20;99.50
7494;DHT22;3788;49.902;8.590;2023-05-07T01:35:38;16.20;99.70
7494;DHT22;3788;49.902;8.590;2023-05-07T01:38:07;16.20;99.80
7494;DHT22;3788;49.902;8.590;2023-05-07T01:40:36;16.20;99.90
7494;DHT22;3788;49.902;8.590;2023-05-07T01:43:03;16.20;99.90
7494;DHT22;3788;49.902;8.590;2023-05-07T01:45:30;16.20;99.90
7494;DHT22;3788;49.902;8.590;2023-05-07T01:47:58;16.20;99.90
7494;DHT22;3788;49.902;8.590;2023-05-07T01:50:25;16.10;99.90
7494;DHT22;3788;49.902;8.590;2023-05-07T01:52:53;16.10;99.90
7494;DHT22;3788;49.902;8.590;2023-05-07T01:55:19;16.10;99.90
7494;DHT22;3788;49.902;8.590;2023-05-07T01:57:47;16.10;99.90
7494;DHT22;3788;49.902;8.590;2023-05-07T02:00:14;16.10;99.90
7494;DHT22;3788;49.902;8.590;2023-05-07T02:02:41;16.10;99.90
7494;DHT22;3788;49.902;8.590;2023-05-07T02:05:08;16.10;99.90
7494;DHT22;3788;49.902;8.590;2023-05-07T02:07:35;16.10;99.90
7494;DHT22;3788;49.902;8.590;2023-05-07T02:10:02;16.10;99.90
7494;DHT22;3788;49.902;8.590;2023-05-07T02:12:29;16.00;99.90
7494;DHT22;3788;49.902;8.590;2023-05-07T02:14:57;16.00;99.90
7494;DHT22;3788;49.902;8.590;2023-05-07T02:17:23;16.00;99.90
7494;DHT22;3788;49.902;8.590;2023-05-07T02:19:50;16.00;99.90
7494;DHT22;3788;49.902;8.590;2023-05-07T02:22:17;16.00;99.90
7494;DHT22;3788;49.902;8.590;2023-05-07T02:24:44;15.90;99.90
7494;DHT22;3788;49.902;8.590;2023-05-07T02:27:11;15.90;99.90
7494;DHT22;3788;49.902;8.590;2023-05-07T02:29:37;15.90;99.90
7494;DHT22;3788;49.902;8.590;2023-05-07T02:32:05;15.90;99.90
7494;DHT22;3788;49.902;8.590;2023-05-07T02:34:32;15.90;99.90
7494;DHT22;3788;49.902;8.590;2023-05-07T02:36:59;15.80;99.90
7494;DHT22;3788;49.902;8.590;2023-05-07T02:39:25;15.80;99.90
7494;DHT22;3788;49.902;8.590;2023-05-07T02:41:52;15.70;99.90
7494;DHT22;3788;49.902;8.590;2023-05-07T02:44:19;15.70;99.90
7494;DHT22;3788;49.902;8.590;2023-05-07T02:46:45;15.70;99.90
7494;DHT22;3788;49.902;8.590;2023-05-07T02:49:13;15.70;99.90
7494;DHT22;3788;49.902;8.590;2023-05-07T02:51:40;15.70;99.90
7494;DHT22;3788;49.902;8.590;2023-05-07T02:54:06;15.70;99.90
7494;DHT22;3788;49.902;8.590;2023-05-07T02:56:33;15.70;99.90
7494;DHT22;3788;49.902;8.590;2023-05-07T02:59:00;15.70;99.90
7494;DHT22;3788;49.902;8.590;2023-05-07T03:01:26;15.70;99.90
7494;DHT22;3788;49.902;8.590;2023-05-07T03:03:53;15.60;99.90
7494;DHT22;3788;49.902;8.590;2023-05-07T03:06:21;15.60;99.90
7494;DHT22;3788;49.902;8.590;2023-05-07T03:08:48;15.60;99.90
7494;DHT22;3788;49.902;8.590;2023-05-07T03:11:14;15.60;99.90
7494;DHT22;3788;49.902;8.590;2023-05-07T03:13:41;15.70;99.90
7494;DHT22;3788;49.902;8.590;2023-05-07T03:16:08;15.60;99.90
7494;DHT22;3788;49.902;8.590;2023-05-07T03:18:35;15.60;99.90
7494;DHT22;3788;49.902;8.590;2023-05-07T03:21:02;15.50;99.90
7494;DHT22;3788;49.902;8.590;2023-05-07T03:23:30;15.60;99.90
7494;DHT22;3788;49.902;8.590;2023-05-07T03:25:56;15.60;99.90
7494;DHT22;3788;49.902;8.590;2023-05-07T03:28:23;15.50;99.90
7494;DHT22;3788;49.902;8.590;2023-05-07T03:30:50;15.50;99.90
7494;DHT22;3788;49.902;8.590;2023-05-07T03:33:17;15.50;99.90
7494;DHT22;3788;49.902;8.590;2023-05-07T03:35:43;15.40;99.90
7494;DHT22;3788;49.902;8.590;2023-05-07T03:38:10;15.40;99.90
7494;DHT22;3788;49.902;8.590;2023-05-07T03:40:38;15.40;99.90
7494;DHT22;3788;49.902;8.590;2023-05-07T03:43:05;15.40;99.90
7494;DHT22;3788;49.902;8.590;2023-05-07T03:45:32;15.40;99.90
7494;DHT22;3788;49.902;8.590;2023-05-07T03:47:58;15.40;99.90
7494;DHT22;3788;49.902;8.590;2023-05-07T03:50:25;15.40;99.90
7494;DHT22;3788;49.902;8.590;2023-05-07T03:52:52;15.30;99.90
7494;DHT22;3788;49.902;8.590;2023-05-07T03:55:18;15.30;99.90
7494;DHT22;3788;49.902;8.590;2023-05-07T03:57:46;15.30;99.90
7494;DHT22;3788;49.902;8.590;2023-05-07T04:00:14;15.30;99.90
7494;DHT22;3788;49.902;8.590;2023-05-07T04:02:40;15.30;99.90
7494;DHT22;3788;49.902;8.590;2023-05-07T04:05:07;15.30;99.90
7494;DHT22;3788;49.902;8.590;2023-05-07T04:07:34;15.30;99.90
7494;DHT22;3788;49.902;8.590;2023-05-07T04:10:01;15.30;99.90
7494;DHT22;3788;49.902;8.590;2023-05-07T04:12:28;15.30;99.90
7494;DHT22;3788;49.902;8.590;2023-05-07T04:14:56;15.20;99.90
7494;DHT22;3788;49.902;8.590;2023-05-07T04:17:22;15.30;99.90
7494;DHT22;3788;49.902;8.590;2023-05-07T04:19:49;15.30;99.90
7494;DHT22;3788;49.902;8.590;2023-05-07T04:22:15;15.30;99.90
7494;DHT22;3788;49.902;8.590;2023-05-07T04:24:42;15.30;99.90
7494;DHT22;3788;49.902;8.590;2023-05-07T04:27:09;15.30;99.90
7494;DHT22;3788;49.902;8.590;2023-05-07T04:29:35;15.30;99.90
7494;DHT22;3788;49.902;8.590;2023-05-07T04:32:04;15.30;99.90
7494;DHT22;3788;49.902;8.590;2023-05-07T04:34:31;15.30;99.90
7494;DHT22;3788;49.902;8.590;2023-05-07T04:36:59;15.30;99.90
7494;DHT22;3788;49.902;8.590;2023-05-07T04:39:25;15.30;99.90
7494;DHT22;3788;49.902;8.590;2023-05-07T04:41:52;15.30;99.90
7494;DHT22;3788;49.902;8.590;2023-05-07T04:44:19;15.40;99.90
7494;DHT22;3788;49.902;8.590;2023-05-07T04:46:46;15.40;99.90
7494;DHT22;3788;49.902;8.590;2023-05-07T04:49:14;15.40;99.90
7494;DHT22;3788;49.902;8.590;2023-05-07T04:51:41;15.40;99.90
7494;DHT22;3788;49.902;8.590;2023-05-07T04:54:08;15.40;99.90
7494;DHT22;3788;49.902;8.590;2023-05-07T04:56:35;15.50;99.90
7494;DHT22;3788;49.902;8.590;2023-05-07T04:59:02;15.50;99.90
7494;DHT22;3788;49.902;8.590;2023-05-07T05:01:28;15.60;99.90
7494;DHT22;3788;49.902;8.590;2023-05-07T05:03:55;15.60;99.90
7494;DHT22;3788;49.902;8.590;2023-05-07T05:06:23;15.70;99.90
7494;DHT22;3788;49.902;8.590;2023-05-07T05:08:50;15.70;99.90
7494;DHT22;3788;49.902;8.590;2023-05-07T05:11:17;15.70;99.90
7494;DHT22;3788;49.902;8.590;2023-05-07T05:13:44;15.70;99.90
7494;DHT22;3788;49.902;8.590;2023-05-07T05:16:12;15.70;99.90
7494;DHT22;3788;49.902;8.590;2023-05-07T05:18:39;15.80;99.90
7494;DHT22;3788;49.902;8.590;2023-05-07T05:21:06;15.80;99.90
7494;DHT22;3788;49.902;8.590;2023-05-07T05:23:34;15.90;99.90
7494;DHT22;3788;49.902;8.590;2023-05-07T05:26:00;15.90;99.90
7494;DHT22;3788;49.902;8.590;2023-05-07T05:28:27;16.00;99.90
7494;DHT22;3788;49.902;8.590;2023-05-07T05:30:54;16.00;99.90
7494;DHT22;3788;49.902;8.590;2023-05-07T05:33:20;16.00;99.90
7494;DHT22;3788;49.902;8.590;2023-05-07T05:35:47;16.00;99.90
7494;DHT22;3788;49.902;8.590;2023-05-07T05:38:14;16.10;99.90
7494;DHT22;3788;49.902;8.590;2023-05-07T05:40:42;16.10;99.80
7494;DHT22;3788;49.902;8.590;2023-05-07T05:43:08;16.20;99.60
7494;DHT22;3788;49.902;8.590;2023-05-07T05:45:35;16.30;99.40
7494;DHT22;3788;49.902;8.590;2023-05-07T05:48:02;16.30;99.00
7494;DHT22;3788;49.902;8.590;2023-05-07T05:50:28;16.40;99.00
7494;DHT22;3788;49.902;8.590;2023-05-07T05:52:55;16.40;98.80
7494;DHT22;3788;49.902;8.590;2023-05-07T05:55:23;16.40;98.70
7494;DHT22;3788;49.902;8.590;2023-05-07T05:57:51;16.50;98.50
7494;DHT22;3788;49.902;8.590;2023-05-07T06:00:18;16.50;98.40
7494;DHT22;3788;49.902;8.590;2023-05-07T06:02:47;16.50;98.30
7494;DHT22;3788;49.902;8.590;2023-05-07T06:05:14;16.60;98.30
7494;DHT22;3788;49.902;8.590;2023-05-07T06:07:41;16.60;98.20
7494;DHT22;3788;49.902;8.590;2023-05-07T06:10:08;16.70;98.10
7494;DHT22;3788;49.902;8.590;2023-05-07T06:12:35;16.70;97.90
7494;DHT22;3788;49.902;8.590;2023-05-07T06:15:03;16.70;97.70
7494;DHT22;3788;49.902;8.590;2023-05-07T06:17:30;16.70;97.60
7494;DHT22;3788;49.902;8.590;2023-05-07T06:19:56;16.70;97.60
7494;DHT22;3788;49.902;8.590;2023-05-07T06:22:23;16.80;97.60
7494;DHT22;3788;49.902;8.590;2023-05-07T06:24:50;16.80;97.50
7494;DHT22;3788;49.902;8.590;2023-05-07T06:27:17;16.90;97.50
7494;DHT22;3788;49.902;8.590;2023-05-07T06:29:43;16.90;97.30
7494;DHT22;3788;49.902;8.590;2023-05-07T06:32:12;16.90;97.10
7494;DHT22;3788;49.902;8.590;2023-05-07T06:34:39;16.90;97.20
7494;DHT22;3788;49.902;8.590;2023-05-07T06:37:07;17.00;97.20
7494;DHT22;3788;49.902;8.590;2023-05-07T06:39:33;17.00;97.20
7494;DHT22;3788;49.902;8.590;2023-05-07T06:42:00;17.00;97.20
7494;DHT22;3788;49.902;8.590;2023-05-07T06:44:27;17.00;97.10
7494;DHT22;3788;49.902;8.590;2023-05-07T06:46:54;17.00;97.10
7494;DHT22;3788;49.902;8.590;2023-05-07T06:49:22;17.10;97.20
7494;DHT22;3788;49.902;8.590;2023-05-07T06:51:49;17.10;97.10
7494;DHT22;3788;49.902;8.590;2023-05-07T06:54:16;17.10;97.10
7494;DHT22;3788;49.902;8.590;2023-05-07T06:56:43;17.10;96.90
7494;DHT22;3788;49.902;8.590;2023-05-07T06:59:10;17.10;96.90
7494;DHT22;3788;49.902;8.590;2023-05-07T07:01:36;17.10;96.90
7494;DHT22;3788;49.902;8.590;2023-05-07T07:04:03;17.10;96.90
7494;DHT22;3788;49.902;8.590;2023-05-07T07:06:31;17.10;96.90
7494;DHT22;3788;49.902;8.590;2023-05-07T07:08:58;17.20;96.90
7494;DHT22;3788;49.902;8.590;2023-05-07T07:11:25;17.20;96.90
7494;DHT22;3788;49.902;8.590;2023-05-07T07:13:51;17.20;96.80
7494;DHT22;3788;49.902;8.590;2023-05-07T07:16:19;17.20;96.90
7494;DHT22;3788;49.902;8.590;2023-05-07T07:18:46;17.30;96.90
7494;DHT22;3788;49.902;8.590;2023-05-07T07:21:13;17.30;96.80
7494;DHT22;3788;49.902;8.590;2023-05-07T07:23:41;17.40;96.80
7494;DHT22;3788;49.902;8.590;2023-05-07T07:26:08;17.40;96.70
7494;DHT22;3788;49.902;8.590;2023-05-07T07:28:34;17.40;96.60
7494;DHT22;3788;49.902;8.590;2023-05-07T07:31:01;17.50;96.60
7494;DHT22;3788;49.902;8.590;2023-05-07T07:33:27;17.60;96.50
7494;DHT22;3788;49.902;8.590;2023-05-07T07:35:55;17.70;96.30
7494;DHT22;3788;49.902;8.590;2023-05-07T07:38:22;17.80;96.20
7494;DHT22;3788;49.902;8.590;2023-05-07T07:40:50;17.90;96.00
7494;DHT22;3788;49.902;8.590;2023-05-07T07:43:17;17.90;95.80
7494;DHT22;3788;49.902;8.590;2023-05-07T07:45:44;18.00;95.70
7494;DHT22;3788;49.902;8.590;2023-05-07T07:48:11;18.10;95.60
7494;DHT22;3788;49.902;8.590;2023-05-07T07:50:38;18.00;95.30
7494;DHT22;3788;49.902;8.590;2023-05-07T07:53:04;18.00;95.40
7494;DHT22;3788;49.902;8.590;2023-05-07T07:55:31;18.00;95.40
7494;DHT22;3788;49.902;8.590;2023-05-07T07:57:59;18.10;95.50
7494;DHT22;3788;49.902;8.590;2023-05-07T08:00:26;18.10;95.40
7494;DHT22;3788;49.902;8.590;2023-05-07T08:02:52;18.10;95.20
7494;DHT22;3788;49.902;8.590;2023-05-07T08:05:19;18.20;95.10
7494;DHT22;3788;49.902;8.590;2023-05-07T08:07:46;18.20;95.20
7494;DHT22;3788;49.902;8.590;2023-05-07T08:10:17;18.20;95.10
7494;DHT22;3788;49.902;8.590;2023-05-07T08:12:46;18.20;94.90
7494;DHT22;3788;49.902;8.590;2023-05-07T08:15:15;18.30;94.70
7494;DHT22;3788;49.902;8.590;2023-05-07T08:17:41;18.30;94.60
7494;DHT22;3788;49.902;8.590;2023-05-07T08:20:09;18.20;94.60
7494;DHT22;3788;49.902;8.590;2023-05-07T08:22:36;18.30;94.60
7494;DHT22;3788;49.902;8.590;2023-05-07T08:25:03;18.40;94.60
7494;DHT22;3788;49.902;8.590;2023-05-07T08:27:30;18.50;94.60
7494;DHT22;3788;49.902;8.590;2023-05-07T08:29:57;18.50;94.40
7494;DHT22;3788;49.902;8.590;2023-05-07T08:32:25;18.60;94.30
7494;DHT22;3788;49.902;8.590;2023-05-07T08:34:51;18.60;94.20
7494;DHT22;3788;49.902;8.590;2023-05-07T08:37:18;18.60;94.10
7494;DHT22;3788;49.902;8.590;2023-05-07T08:39:45;18.60;94.00
7494;DHT22;3788;49.902;8.590;2023-05-07T08:42:12;18.60;93.90
7494;DHT22;3788;49.902;8.590;2023-05-07T08:44:45;18.70;94.30
7494;DHT22;3788;49.902;8.590;2023-05-07T08:47:12;18.80;94.20
7494;DHT22;3788;49.902;8.590;2023-05-07T08:49:40;18.80;93.80
7494;DHT22;3788;49.902;8.590;2023-05-07T08:52:07;18.90;93.80
7494;DHT22;3788;49.902;8.590;2023-05-07T08:54:36;18.90;93.60
7494;DHT22;3788;49.902;8.590;2023-05-07T08:57:03;19.00;93.60
7494;DHT22;3788;49.902;8.590;2023-05-07T08:59:30;19.10;93.30
7494;DHT22;3788;49.902;8.590;2023-05-07T09:01:56;19.20;92.90
7494;DHT22;3788;49.902;8.590;2023-05-07T09:04:23;19.30;92.90
7494;DHT22;3788;49.902;8.590;2023-05-07T09:06:51;19.50;92.80
7494;DHT22;3788;49.902;8.590;2023-05-07T09:09:18;19.60;92.40
7494;DHT22;3788;49.902;8.590;2023-05-07T09:11:45;19.60;92.00
7494;DHT22;3788;49.902;8.590;2023-05-07T09:14:11;19.80;92.00
7494;DHT22;3788;49.902;8.590;2023-05-07T09:16:38;19.90;91.90
7494;DHT22;3788;49.902;8.590;2023-05-07T09:19:05;19.90;91.40
7494;DHT22;3788;49.902;8.590;2023-05-07T09:21:32;20.00;91.30
7494;DHT22;3788;49.902;8.590;2023-05-07T09:24:00;20.00;91.30
7494;DHT22;3788;49.902;8.590;2023-05-07T09:26:27;20.10;91.10
7494;DHT22;3788;49.902;8.590;2023-05-07T09:28:53;20.20;91.00
7494;DHT22;3788;49.902;8.590;2023-05-07T09:31:20;20.20;90.90
7494;DHT22;3788;49.902;8.590;2023-05-07T09:33:48;20.30;90.70
7494;DHT22;3788;49.902;8.590;2023-05-07T09:36:15;20.30;90.80
7494;DHT22;3788;49.902;8.590;2023-05-07T09:38:42;20.50;90.70
7494;DHT22;3788;49.902;8.590;2023-05-07T09:41:12;20.70;90.30
7494;DHT22;3788;49.902;8.590;2023-05-07T09:43:39;20.80;90.00
7494;DHT22;3788;49.902;8.590;2023-05-07T09:46:10;20.90;89.60
7494;DHT22;3788;49.902;8.590;2023-05-07T09:48:38;21.00;89.10
7494;DHT22;3788;49.902;8.590;2023-05-07T09:51:22;21.20;88.90
7494;DHT22;3788;49.902;8.590;2023-05-07T09:53:52;21.40;88.00
7494;DHT22;3788;49.902;8.590;2023-05-07T09:56:21;21.50;87.10
7494;DHT22;3788;49.902;8.590;2023-05-07T09:58:48;21.60;86.80
7494;DHT22;3788;49.902;8.590;2023-05-07T10:01:17;21.80;86.40
7494;DHT22;3788;49.902;8.590;2023-05-07T10:03:44;21.90;86.00
7494;DHT22;3788;49.902;8.590;2023-05-07T10:06:13;22.00;85.90
7494;DHT22;3788;49.902;8.590;2023-05-07T10:08:40;22.10;86.00
7494;DHT22;3788;49.902;8.590;2023-05-07T10:11:07;22.20;85.70
7494;DHT22;3788;49.902;8.590;2023-05-07T10:13:37;22.10;85.20
7494;DHT22;3788;49.902;8.590;2023-05-07T10:16:04;22.20;85.10
7494;DHT22;3788;49.902;8.590;2023-05-07T10:18:31;22.10;84.90
7494;DHT22;3788;49.902;8.590;2023-05-07T10:21:04;22.10;84.90
7494;DHT22;3788;49.902;8.590;2023-05-07T10:23:32;22.00;84.90
7494;DHT22;3788;49.902;8.590;2023-05-07T10:26:01;22.10;85.20
7494;DHT22;3788;49.902;8.590;2023-05-07T10:28:31;22.20;84.90
7494;DHT22;3788;49.902;8.590;2023-05-07T10:31:15;22.40;84.60
7494;DHT22;3788;49.902;8.590;2023-05-07T10:33:51;22.50;83.80
7494;DHT22;3788;49.902;8.590;2023-05-07T10:36:20;22.60;83.50
7494;DHT22;3788;49.902;8.590;2023-05-07T10:38:47;22.60;83.60
7494;DHT22;3788;49.902;8.590;2023-05-07T10:41:14;22.60;83.50
7494;DHT22;3788;49.902;8.590;2023-05-07T10:43:44;22.80;83.30
7494;DHT22;3788;49.902;8.590;2023-05-07T10:46:17;23.20;82.90
7494;DHT22;3788;49.902;8.590;2023-05-07T10:49:08;23.60;82.50
7494;DHT22;3788;49.902;8.590;2023-05-07T10:51:38;23.90;81.90
7494;DHT22;3788;49.902;8.590;2023-05-07T10:54:22;24.00;80.30
7494;DHT22;3788;49.902;8.590;2023-05-07T10:56:52;24.10;79.50
7494;DHT22;3788;49.902;8.590;2023-05-07T10:59:35;24.20;79.70
7494;DHT22;3788;49.902;8.590;2023-05-07T11:02:09;24.30;80.30
7494;DHT22;3788;49.902;8.590;2023-05-07T11:04:39;24.30;77.60
7494;DHT22;3788;49.902;8.590;2023-05-07T11:07:25;24.20;77.10
7494;DHT22;3788;49.902;8.590;2023-05-07T11:09:56;24.20;77.10
7494;DHT22;3788;49.902;8.590;2023-05-07T11:12:51;24.20;77.30
7494;DHT22;3788;49.902;8.590;2023-05-07T11:15:35;24.20;76.60
7494;DHT22;3788;49.902;8.590;2023-05-07T11:18:04;24.40;76.60
7494;DHT22;3788;49.902;8.590;2023-05-07T11:20:51;24.50;76.70
7494;DHT22;3788;49.902;8.590;2023-05-07T11:26:25;24.50;75.30
7494;DHT22;3788;49.902;8.590;2023-05-07T11:28:52;24.40;74.90
7494;DHT22;3788;49.902;8.590;2023-05-07T11:31:24;24.40;75.20
7494;DHT22;3788;49.902;8.590;2023-05-07T11:33:54;24.40;75.10
7494;DHT22;3788;49.902;8.590;2023-05-07T11:36:24;24.30;74.30
7494;DHT22;3788;49.902;8.590;2023-05-07T11:38:51;24.20;74.40
7494;DHT22;3788;49.902;8.590;2023-05-07T11:41:18;24.20;74.70
7494;DHT22;3788;49.902;8.590;2023-05-07T11:43:54;24.20;74.60
7494;DHT22;3788;49.902;8.590;2023-05-07T11:46:21;24.20;74.80
7494;DHT22;3788;49.902;8.590;2023-05-07T11:48:48;24.10;74.80
7494;DHT22;3788;49.902;8.590;2023-05-07T11:51:20;24.10;74.80
7494;DHT22;3788;49.902;8.590;2023-05-07T11:53:47;24.10;74.70
7494;DHT22;3788;49.902;8.590;2023-05-07T11:56:16;24.00;74.40
7494;DHT22;3788;49.902;8.590;2023-05-07T11:58:44;24.10;74.70
7494;DHT22;3788;49.902;8.590;2023-05-07T12:01:12;24.20;73.90
7494;DHT22;3788;49.902;8.590;2023-05-07T12:03:41;24.20;72.40
7494;DHT22;3788;49.902;8.590;2023-05-07T12:06:08;24.20;70.60
7494;DHT22;3788;49.902;8.590;2023-05-07T12:08:38;24.20;70.60
7494;DHT22;3788;49.902;8.590;2023-05-07T12:11:13;24.20;69.90
7494;DHT22;3788;49.902;8.590;2023-05-07T12:13:41;24.20;70.60
7494;DHT22;3788;49.902;8.590;2023-05-07T12:16:08;24.20;71.40
7494;DHT22;3788;49.902;8.590;2023-05-07T12:18:36;24.30;72.50
7494;DHT22;3788;49.902;8.590;2023-05-07T12:21:04;24.30;71.20
7494;DHT22;3788;49.902;8.590;2023-05-07T12:23:31;24.40;70.70
7494;DHT22;3788;49.902;8.590;2023-05-07T12:26:00;24.50;70.30
7494;DHT22;3788;49.902;8.590;2023-05-07T12:28:26;24.50;69.70
7494;DHT22;3788;49.902;8.590;2023-05-07T12:30:53;24.50;69.90
7494;DHT22;3788;49.902;8.590;2023-05-07T12:33:24;24.50;69.80
7494;DHT22;3788;49.902;8.590;2023-05-07T12:35:54;24.50;70.10
7494;DHT22;3788;49.902;8.590;2023-05-07T12:38:21;24.50;69.90
7494;DHT22;3788;49.902;8.590;2023-05-07T12:40:48;24.50;69.70
7494;DHT22;3788;49.902;8.590;2023-05-07T12:43:18;24.50;69.60
7494;DHT22;3788;49.902;8.590;2023-05-07T12:45:46;24.60;68.30
7494;DHT22;3788;49.902;8.590;2023-05-07T12:48:13;24.60;68.20
7494;DHT22;3788;49.902;8.590;2023-05-07T12:50:40;24.60;67.50
7494;DHT22;3788;49.902;8.590;2023-05-07T12:53:07;24.60;67.30
7494;DHT22;3788;49.902;8.590;2023-05-07T12:55:41;24.60;66.70
7494;DHT22;3788;49.902;8.590;2023-05-07T12:58:14;24.50;67.00
7494;DHT22;3788;49.902;8.590;2023-05-07T13:00:43;24.50;66.90
7494;DHT22;3788;49.902;8.590;2023-05-07T13:03:10;24.50;66.30
7494;DHT22;3788;49.902;8.590;2023-05-07T13:05:37;24.50;66.50
7494;DHT22;3788;49.902;8.590;2023-05-07T13:08:04;24.50;65.60
7494;DHT22;3788;49.902;8.590;2023-05-07T13:10:31;24.40;65.70
7494;DHT22;3788;49.902;8.590;2023-05-07T13:12:58;24.40;66.00
7494;DHT22;3788;49.902;8.590;2023-05-07T13:15:25;24.50;66.00
7494;DHT22;3788;49.902;8.590;2023-05-07T13:17:53;24.60;66.70
7494;DHT22;3788;49.902;8.590;2023-05-07T13:20:21;24.60;67.30
7494;DHT22;3788;49.902;8.590;2023-05-07T13:22:48;24.50;66.90
7494;DHT22;3788;49.902;8.590;2023-05-07T13:25:15;24.60;66.90
7494;DHT22;3788;49.902;8.590;2023-05-07T13:27:42;24.70;66.10
7494;DHT22;3788;49.902;8.590;2023-05-07T13:30:08;24.60;65.20
7494;DHT22;3788;49.902;8.590;2023-05-07T13:32:35;24.60;65.00
7494;DHT22;3788;49.902;8.590;2023-05-07T13:35:04;24.60;65.20
7494;DHT22;3788;49.902;8.590;2023-05-07T13:37:30;24.60;64.70
7494;DHT22;3788;49.902;8.590;2023-05-07T13:39:57;24.60;65.00
7494;DHT22;3788;49.902;8.590;2023-05-07T13:42:24;24.60;65.50
7494;DHT22;3788;49.902;8.590;2023-05-07T13:44:50;24.60;65.80
7494;DHT22;3788;49.902;8.590;2023-05-07T13:47:17;24.60;65.20
7494;DHT22;3788;49.902;8.590;2023-05-07T13:49:44;24.60;65.90
7494;DHT22;3788;49.902;8.590;2023-05-07T13:52:12;24.60;65.90
7494;DHT22;3788;49.902;8.590;2023-05-07T13:54:38;24.60;65.90
7494;DHT22;3788;49.902;8.590;2023-05-07T13:57:05;24.60;65.40
7494;DHT22;3788;49.902;8.590;2023-05-07T13:59:32;24.60;65.70
7494;DHT22;3788;49.902;8.590;2023-05-07T14:01:59;24.50;65.80
7494;DHT22;3788;49.902;8.590;2023-05-07T14:04:26;24.50;65.70
7494;DHT22;3788;49.902;8.590;2023-05-07T14:06:52;24.60;65.90
7494;DHT22;3788;49.902;8.590;2023-05-07T14:09:21;24.60;65.60
7494;DHT22;3788;49.902;8.590;2023-05-07T14:11:47;24.60;64.90
7494;DHT22;3788;49.902;8.590;2023-05-07T14:14:16;24.60;64.90
7494;DHT22;3788;49.902;8.590;2023-05-07T14:16:43;24.60;64.10
7494;DHT22;3788;49.902;8.590;2023-05-07T14:19:10;24.60;64.50
7494;DHT22;3788;49.902;8.590;2023-05-07T14:21:36;24.50;64.40
7494;DHT22;3788;49.902;8.590;2023-05-07T14:24:04;24.50;64.40
7494;DHT22;3788;49.902;8.590;2023-05-07T14:26:32;24.50;64.70
7494;DHT22;3788;49.902;8.590;2023-05-07T14:28:59;24.40;64.60
7494;DHT22;3788;49.902;8.590;2023-05-07T14:31:25;24.40;64.50
7494;DHT22;3788;49.902;8.590;2023-05-07T14:33:52;24.30;64.20
7494;DHT22;3788;49.902;8.590;2023-05-07T14:36:19;24.30;64.50
7494;DHT22;3788;49.902;8.590;2023-05-07T14:38:48;24.30;64.60
7494;DHT22;3788;49.902;8.590;2023-05-07T14:41:15;24.30;64.40
7494;DHT22;3788;49.902;8.590;2023-05-07T14:43:43;24.40;64.70
7494;DHT22;3788;49.902;8.590;2023-05-07T14:46:15;24.30;64.20
7494;DHT22;3788;49.902;8.590;2023-05-07T14:48:43;24.30;64.30
7494;DHT22;3788;49.902;8.590;2023-05-07T14:51:10;24.30;64.50
7494;DHT22;3788;49.902;8.590;2023-05-07T14:53:37;24.20;64.90
7494;DHT22;3788;49.902;8.590;2023-05-07T14:56:04;24.20;65.00
7494;DHT22;3788;49.902;8.590;2023-05-07T14:58:31;24.20;65.00
7494;DHT22;3788;49.902;8.590;2023-05-07T15:01:00;24.20;65.10
7494;DHT22;3788;49.902;8.590;2023-05-07T15:03:26;24.10;64.60
7494;DHT22;3788;49.902;8.590;2023-05-07T15:05:53;24.10;64.60
7494;DHT22;3788;49.902;8.590;2023-05-07T15:08:20;24.10;64.90
7494;DHT22;3788;49.902;8.590;2023-05-07T15:10:47;24.10;65.00
7494;DHT22;3788;49.902;8.590;2023-05-07T15:13:14;24.00;65.00
7494;DHT22;3788;49.902;8.590;2023-05-07T15:15:42;24.00;65.00
7494;DHT22;3788;49.902;8.590;2023-05-07T15:18:10;24.00;64.70
7494;DHT22;3788;49.902;8.590;2023-05-07T15:20:37;23.90;64.60
7494;DHT22;3788;49.902;8.590;2023-05-07T15:23:03;23.90;64.50
7494;DHT22;3788;49.902;8.590;2023-05-07T15:25:31;23.80;63.20
7494;DHT22;3788;49.902;8.590;2023-05-07T15:27:59;23.70;63.30
7494;DHT22;3788;49.902;8.590;2023-05-07T15:30:25;23.70;63.70
7494;DHT22;3788;49.902;8.590;2023-05-07T15:32:52;23.70;64.20
7494;DHT22;3788;49.902;8.590;2023-05-07T15:35:20;23.70;65.00
7494;DHT22;3788;49.902;8.590;2023-05-07T15:37:47;23.60;65.30
7494;DHT22;3788;49.902;8.590;2023-05-07T15:40:14;23.60;65.70
7494;DHT22;3788;49.902;8.590;2023-05-07T15:42:41;23.60;66.20
7494;DHT22;3788;49.902;8.590;2023-05-07T15:45:09;23.50;66.40
7494;DHT22;3788;49.902;8.590;2023-05-07T15:47:36;23.50;66.60
7494;DHT22;3788;49.902;8.590;2023-05-07T15:50:03;23.40;66.70
7494;DHT22;3788;49.902;8.590;2023-05-07T15:52:32;23.40;67.10
7494;DHT22;3788;49.902;8.590;2023-05-07T15:54:59;23.40;67.30
7494;DHT22;3788;49.902;8.590;2023-05-07T15:57:25;23.30;67.50
7494;DHT22;3788;49.902;8.590;2023-05-07T15:59:52;23.30;67.70
7494;DHT22;3788;49.902;8.590;2023-05-07T16:02:19;23.20;73.90
7494;DHT22;3788;49.902;8.590;2023-05-07T16:04:45;22.90;79.90
7494;DHT22;3788;49.902;8.590;2023-05-07T16:07:12;22.40;83.70
7494;DHT22;3788;49.902;8.590;2023-05-07T16:09:40;21.90;90.10